createdAt,value
2019-05-09T19:58:40.249Z,91.33
2019-05-09T20:01:11.929Z,91.14
2019-05-09T20:03:43.555Z,91.13
2019-05-09T20:06:17.264Z,91.12
2019-05-09T20:08:49.423Z,90.80
2019-05-09T20:11:22.826Z,90.93
2019-05-09T20:13:59.208Z,91.75
2019-05-09T20:16:32.374Z,91.67
2019-05-09T20:19:04.241Z,91.66
2019-05-09T20:21:36.027Z,91.98
2019-05-09T20:24:09.393Z,91.87
2019-05-09T20:26:41.046Z,92.00
2019-05-09T20:29:12.696Z,92.36
2019-05-09T20:31:43.668Z,92.37
2019-05-09T20:34:14.908Z,91.95
2019-05-09T20:36:46.434Z,92.33
2019-05-09T20:39:18.415Z,92.40
2019-05-09T20:41:50.467Z,92.42
2019-05-09T20:44:22.215Z,92.59
2019-05-09T20:46:54.083Z,92.45
2019-05-09T20:49:26.144Z,92.65
2019-05-09T20:51:58.453Z,92.75
2019-05-09T20:54:30.780Z,92.80
2019-05-09T20:57:02.646Z,92.46
2019-05-09T20:59:34.400Z,93.09
2019-05-09T21:02:06.581Z,93.03
2019-05-09T21:04:38.527Z,93.15
2019-05-09T21:07:10.391Z,93.26
2019-05-09T21:09:42.249Z,93.79
2019-05-09T21:12:14.427Z,94.29
2019-05-09T21:14:46.391Z,94.79
2019-05-09T21:17:18.452Z,94.73
2019-05-09T21:19:50.514Z,95.15
2019-05-09T21:22:22.677Z,94.98
2019-05-09T21:24:54.326Z,95.06
2019-05-09T21:27:26.090Z,94.07
2019-05-09T21:29:57.955Z,94.19
2019-05-09T21:32:29.912Z,94.03
2019-05-09T21:35:01.791Z,94.43
2019-05-09T21:37:36.299Z,93.85
2019-05-09T21:40:08.839Z,93.63
2019-05-09T21:42:40.426Z,93.80
2019-05-09T21:45:11.257Z,93.59
2019-05-09T21:47:42.398Z,93.92
2019-05-09T21:50:14.539Z,93.74
2019-05-09T21:52:46.661Z,93.61
2019-05-09T21:55:18.289Z,93.04
2019-05-09T21:57:50.148Z,93.51
2019-05-09T22:00:29.413Z,93.38
2019-05-09T22:03:02.682Z,93.21
2019-05-09T22:05:36.121Z,92.82
2019-05-09T22:08:07.726Z,93.02
2019-05-09T22:10:39.168Z,93.30
2019-05-09T22:13:09.832Z,93.22
2019-05-09T22:15:41.150Z,93.40
2019-05-09T22:18:13.015Z,92.96
2019-05-09T22:20:44.563Z,93.35
2019-05-09T22:23:15.404Z,92.36
2019-05-09T22:25:46.541Z,92.56
2019-05-09T22:28:18.300Z,92.36
2019-05-09T22:30:49.954Z,92.61
2019-05-09T22:33:21.606Z,92.32
2019-05-09T22:35:53.259Z,93.22
2019-05-09T22:38:24.917Z,93.09
2019-05-09T22:40:56.789Z,92.33
2019-05-09T22:43:28.945Z,92.62
2019-05-09T22:46:00.808Z,92.96
2019-05-09T22:48:32.355Z,92.36
2019-05-09T22:51:04.219Z,92.56
2019-05-09T22:53:36.294Z,92.06
2019-05-09T22:56:08.041Z,91.67
2019-05-09T22:58:38.805Z,92.50
2019-05-09T23:01:10.560Z,91.98
2019-05-09T23:03:42.290Z,92.23
2019-05-09T23:06:13.049Z,92.28
2019-05-09T23:08:44.159Z,92.43
2019-05-09T23:11:15.915Z,91.85
2019-05-09T23:13:53.821Z,91.94
2019-05-09T23:16:27.316Z,91.67
2019-05-09T23:18:58.975Z,91.36
2019-05-09T23:21:30.626Z,90.95
2019-05-09T23:24:04.136Z,90.74
2019-05-09T23:26:36.091Z,90.94
2019-05-09T23:29:07.946Z,90.58
2019-05-09T23:31:44.516Z,90.55
2019-05-09T23:34:16.273Z,90.60
2019-05-09T23:36:47.934Z,91.33
2019-05-09T23:39:21.428Z,90.76
2019-05-09T23:41:53.082Z,91.05
2019-05-09T23:44:24.845Z,90.53
2019-05-09T23:46:56.899Z,90.27
2019-05-09T23:49:28.556Z,89.52
2019-05-09T23:52:00.331Z,90.67
2019-05-09T23:54:49.990Z,89.57
2019-05-09T23:57:41.819Z,89.67
